sensor_id;sensor_type;location;lat;lon;timestamp;P1;durP1;ratioP1;P2;durP2;ratioP2
70558;SDS011;58108;48.094;11.838;2023-09-08T00:00:26;8.83;;;4.33;;
70558;SDS011;58108;48.094;11.838;2023-09-08T00:02:51;8.87;;;4.00;;
70558;SDS011;58108;48.094;11.838;2023-09-08T00:05:16;9.93;;;4.40;;
70558;SDS011;58108;48.094;11.838;2023-09-08T00:07:41;9.47;;;4.30;;
70558;SDS011;58108;48.094;11.838;2023-09-08T00:10:08;8.60;;;4.03;;
70558;SDS011;58108;48.094;11.838;2023-09-08T00:12:33;9.10;;;4.33;;
70558;SDS011;58108;48.094;11.838;2023-09-08T00:14:58;7.50;;;4.10;;
70558;SDS011;58108;48.094;11.838;2023-09-08T00:17:23;7.40;;;4.17;;
70558;SDS011;58108;48.094;11.838;2023-09-08T00:19:48;8.17;;;4.37;;
70558;SDS011;58108;48.094;11.838;2023-09-08T00:22:14;9.77;;;4.70;;
70558;SDS011;58108;48.094;11.838;2023-09-08T00:24:39;8.17;;;3.97;;
70558;SDS011;58108;48.094;11.838;2023-09-08T00:27:04;9.33;;;3.90;;
70558;SDS011;58108;48.094;11.838;2023-09-08T00:29:29;8.27;;;4.10;;
70558;SDS011;58108;48.094;11.838;2023-09-08T00:31:54;8.60;;;4.30;;
70558;SDS011;58108;48.094;11.838;2023-09-08T00:34:20;8.67;;;4.80;;
70558;SDS011;58108;48.094;11.838;2023-09-08T00:36:45;9.07;;;4.63;;
70558;SDS011;58108;48.094;11.838;2023-09-08T00:39:10;8.63;;;4.40;;
70558;SDS011;58108;48.094;11.838;2023-09-08T00:41:35;7.90;;;3.60;;
70558;SDS011;58108;48.094;11.838;2023-09-08T00:44:00;9.60;;;4.37;;
70558;SDS011;58108;48.094;11.838;2023-09-08T00:46:25;7.87;;;4.00;;
70558;SDS011;58108;48.094;11.838;2023-09-08T00:48:52;8.52;;;4.30;;
70558;SDS011;58108;48.094;11.838;2023-09-08T00:51:17;8.63;;;4.20;;
70558;SDS011;58108;48.094;11.838;2023-09-08T00:53:43;7.85;;;3.92;;
70558;SDS011;58108;48.094;11.838;2023-09-08T00:56:09;9.30;;;4.10;;
70558;SDS011;58108;48.094;11.838;2023-09-08T00:58:34;7.47;;;4.20;;
70558;SDS011;58108;48.094;11.838;2023-09-08T01:00:59;7.67;;;3.93;;
70558;SDS011;58108;48.094;11.838;2023-09-08T01:03:25;7.33;;;4.00;;
70558;SDS011;58108;48.094;11.838;2023-09-08T01:05:50;7.57;;;3.70;;
70558;SDS011;58108;48.094;11.838;2023-09-08T01:08:16;8.13;;;4.15;;
70558;SDS011;58108;48.094;11.838;2023-09-08T01:10:41;8.70;;;4.20;;
70558;SDS011;58108;48.094;11.838;2023-09-08T01:13:07;8.43;;;3.80;;
70558;SDS011;58108;48.094;11.838;2023-09-08T01:15:32;7.83;;;4.20;;
70558;SDS011;58108;48.094;11.838;2023-09-08T01:17:57;8.80;;;4.13;;
70558;SDS011;58108;48.094;11.838;2023-09-08T01:20:24;10.63;;;4.20;;
70558;SDS011;58108;48.094;11.838;2023-09-08T01:25:35;7.88;;;3.88;;
70558;SDS011;58108;48.094;11.838;2023-09-08T01:28:03;8.68;;;4.13;;
70558;SDS011;58108;48.094;11.838;2023-09-08T01:30:30;8.50;;;4.35;;
70558;SDS011;58108;48.094;11.838;2023-09-08T01:32:58;8.63;;;4.18;;
70558;SDS011;58108;48.094;11.838;2023-09-08T01:35:23;7.87;;;3.83;;
70558;SDS011;58108;48.094;11.838;2023-09-08T01:37:49;8.57;;;4.10;;
70558;SDS011;58108;48.094;11.838;2023-09-08T01:40:15;9.80;;;4.27;;
70558;SDS011;58108;48.094;11.838;2023-09-08T01:42:40;7.23;;;3.63;;
70558;SDS011;58108;48.094;11.838;2023-09-08T01:45:05;7.67;;;3.70;;
70558;SDS011;58108;48.094;11.838;2023-09-08T01:47:31;7.32;;;3.80;;
70558;SDS011;58108;48.094;11.838;2023-09-08T01:49:57;8.23;;;4.13;;
70558;SDS011;58108;48.094;11.838;2023-09-08T01:52:22;7.37;;;3.40;;
70558;SDS011;58108;48.094;11.838;2023-09-08T01:54:47;8.47;;;3.83;;
70558;SDS011;58108;48.094;11.838;2023-09-08T01:57:12;9.37;;;4.00;;
70558;SDS011;58108;48.094;11.838;2023-09-08T01:59:37;6.30;;;3.33;;
70558;SDS011;58108;48.094;11.838;2023-09-08T02:02:03;8.40;;;3.40;;
70558;SDS011;58108;48.094;11.838;2023-09-08T02:04:28;6.40;;;3.40;;
70558;SDS011;58108;48.094;11.838;2023-09-08T02:06:53;7.63;;;3.93;;
70558;SDS011;58108;48.094;11.838;2023-09-08T02:09:19;6.97;;;3.60;;
70558;SDS011;58108;48.094;11.838;2023-09-08T02:11:44;8.57;;;3.83;;
70558;SDS011;58108;48.094;11.838;2023-09-08T02:14:09;8.50;;;3.93;;
70558;SDS011;58108;48.094;11.838;2023-09-08T02:16:34;8.50;;;3.87;;
70558;SDS011;58108;48.094;11.838;2023-09-08T02:18:59;7.83;;;4.13;;
70558;SDS011;58108;48.094;11.838;2023-09-08T02:21:24;7.60;;;4.37;;
70558;SDS011;58108;48.094;11.838;2023-09-08T02:23:50;8.30;;;4.00;;
70558;SDS011;58108;48.094;11.838;2023-09-08T02:26:15;8.07;;;4.20;;
70558;SDS011;58108;48.094;11.838;2023-09-08T02:28:40;8.30;;;4.20;;
70558;SDS011;58108;48.094;11.838;2023-09-08T02:31:05;8.70;;;3.87;;
70558;SDS011;58108;48.094;11.838;2023-09-08T02:33:30;8.47;;;3.83;;
70558;SDS011;58108;48.094;11.838;2023-09-08T02:36:00;8.40;;;4.23;;
70558;SDS011;58108;48.094;11.838;2023-09-08T02:38:25;8.50;;;4.18;;
70558;SDS011;58108;48.094;11.838;2023-09-08T02:40:51;9.70;;;4.67;;
70558;SDS011;58108;48.094;11.838;2023-09-08T02:43:16;9.93;;;4.10;;
70558;SDS011;58108;48.094;11.838;2023-09-08T02:45:41;9.10;;;4.43;;
70558;SDS011;58108;48.094;11.838;2023-09-08T02:48:06;10.93;;;4.60;;
70558;SDS011;58108;48.094;11.838;2023-09-08T02:50:31;9.37;;;4.70;;
70558;SDS011;58108;48.094;11.838;2023-09-08T02:52:57;8.73;;;4.20;;
70558;SDS011;58108;48.094;11.838;2023-09-08T02:55:22;8.57;;;4.20;;
70558;SDS011;58108;48.094;11.838;2023-09-08T02:57:47;7.87;;;4.13;;
70558;SDS011;58108;48.094;11.838;2023-09-08T03:00:12;9.77;;;4.17;;
70558;SDS011;58108;48.094;11.838;2023-09-08T03:02:38;9.52;;;4.22;;
70558;SDS011;58108;48.094;11.838;2023-09-08T03:05:03;7.73;;;3.97;;
70558;SDS011;58108;48.094;11.838;2023-09-08T03:07:28;8.63;;;4.30;;
70558;SDS011;58108;48.094;11.838;2023-09-08T03:09:53;8.73;;;4.10;;
70558;SDS011;58108;48.094;11.838;2023-09-08T03:12:19;9.23;;;4.13;;
70558;SDS011;58108;48.094;11.838;2023-09-08T03:14:44;11.87;;;4.30;;
70558;SDS011;58108;48.094;11.838;2023-09-08T03:17:10;9.80;;;4.23;;
70558;SDS011;58108;48.094;11.838;2023-09-08T03:19:35;8.67;;;4.50;;
70558;SDS011;58108;48.094;11.838;2023-09-08T03:22:00;9.30;;;4.30;;
70558;SDS011;58108;48.094;11.838;2023-09-08T03:24:25;8.23;;;4.17;;
70558;SDS011;58108;48.094;11.838;2023-09-08T03:26:50;8.40;;;4.27;;
70558;SDS011;58108;48.094;11.838;2023-09-08T03:29:15;8.07;;;3.93;;
70558;SDS011;58108;48.094;11.838;2023-09-08T03:31:41;6.97;;;3.40;;
70558;SDS011;58108;48.094;11.838;2023-09-08T03:34:06;7.73;;;4.23;;
70558;SDS011;58108;48.094;11.838;2023-09-08T03:36:31;7.63;;;3.77;;
70558;SDS011;58108;48.094;11.838;2023-09-08T03:39:00;7.68;;;4.10;;
70558;SDS011;58108;48.094;11.838;2023-09-08T03:41:25;9.37;;;4.27;;
70558;SDS011;58108;48.094;11.838;2023-09-08T03:43:51;9.60;;;4.67;;
70558;SDS011;58108;48.094;11.838;2023-09-08T03:46:16;9.60;;;4.87;;
70558;SDS011;58108;48.094;11.838;2023-09-08T03:48:41;8.10;;;4.00;;
70558;SDS011;58108;48.094;11.838;2023-09-08T03:51:06;8.97;;;4.53;;
70558;SDS011;58108;48.094;11.838;2023-09-08T03:53:31;9.47;;;4.20;;
70558;SDS011;58108;48.094;11.838;2023-09-08T03:55:57;7.13;;;3.67;;
70558;SDS011;58108;48.094;11.838;2023-09-08T03:58:22;9.73;;;4.07;;
70558;SDS011;58108;48.094;11.838;2023-09-08T04:00:47;8.87;;;4.33;;
70558;SDS011;58108;48.094;11.838;2023-09-08T04:03:12;9.50;;;4.10;;
70558;SDS011;58108;48.094;11.838;2023-09-08T04:05:37;9.70;;;5.07;;
70558;SDS011;58108;48.094;11.838;2023-09-08T04:08:03;10.63;;;4.90;;
70558;SDS011;58108;48.094;11.838;2023-09-08T04:10:28;9.52;;;4.43;;
70558;SDS011;58108;48.094;11.838;2023-09-08T04:12:53;9.98;;;4.70;;
70558;SDS011;58108;48.094;11.838;2023-09-08T04:15:18;8.67;;;4.70;;
70558;SDS011;58108;48.094;11.838;2023-09-08T04:17:44;8.83;;;4.60;;
70558;SDS011;58108;48.094;11.838;2023-09-08T04:20:10;9.32;;;4.80;;
70558;SDS011;58108;48.094;11.838;2023-09-08T04:22:35;9.70;;;4.78;;
70558;SDS011;58108;48.094;11.838;2023-09-08T04:25:01;10.53;;;5.10;;
70558;SDS011;58108;48.094;11.838;2023-09-08T04:27:26;9.77;;;4.90;;
70558;SDS011;58108;48.094;11.838;2023-09-08T04:29:52;10.23;;;5.07;;
70558;SDS011;58108;48.094;11.838;2023-09-08T04:32:17;8.27;;;4.87;;
70558;SDS011;58108;48.094;11.838;2023-09-08T04:34:42;8.27;;;4.20;;
70558;SDS011;58108;48.094;11.838;2023-09-08T04:37:07;9.33;;;4.20;;
70558;SDS011;58108;48.094;11.838;2023-09-08T04:39:33;8.32;;;4.00;;
70558;SDS011;58108;48.094;11.838;2023-09-08T04:41:58;8.73;;;4.28;;
70558;SDS011;58108;48.094;11.838;2023-09-08T04:44:24;9.00;;;4.23;;
70558;SDS011;58108;48.094;11.838;2023-09-08T04:46:49;9.53;;;4.50;;
70558;SDS011;58108;48.094;11.838;2023-09-08T04:49:14;9.13;;;4.63;;
70558;SDS011;58108;48.094;11.838;2023-09-08T04:51:39;8.50;;;4.33;;
70558;SDS011;58108;48.094;11.838;2023-09-08T04:54:04;9.87;;;4.53;;
70558;SDS011;58108;48.094;11.838;2023-09-08T04:56:30;9.57;;;4.47;;
70558;SDS011;58108;48.094;11.838;2023-09-08T04:58:55;10.20;;;4.40;;
70558;SDS011;58108;48.094;11.838;2023-09-08T05:01:21;9.30;;;4.63;;
70558;SDS011;58108;48.094;11.838;2023-09-08T05:03:46;9.10;;;4.23;;
70558;SDS011;58108;48.094;11.838;2023-09-08T05:06:11;12.60;;;5.83;;
70558;SDS011;58108;48.094;11.838;2023-09-08T05:08:36;9.50;;;5.18;;
70558;SDS011;58108;48.094;11.838;2023-09-08T05:11:01;10.65;;;5.15;;
70558;SDS011;58108;48.094;11.838;2023-09-08T05:13:26;9.03;;;4.77;;
70558;SDS011;58108;48.094;11.838;2023-09-08T05:15:52;10.02;;;5.05;;
70558;SDS011;58108;48.094;11.838;2023-09-08T05:18:24;9.32;;;4.50;;
70558;SDS011;58108;48.094;11.838;2023-09-08T05:20:50;10.77;;;5.10;;
70558;SDS011;58108;48.094;11.838;2023-09-08T05:23:15;11.07;;;5.10;;
70558;SDS011;58108;48.094;11.838;2023-09-08T05:25:41;9.40;;;5.00;;
70558;SDS011;58108;48.094;11.838;2023-09-08T05:28:06;10.43;;;5.18;;
70558;SDS011;58108;48.094;11.838;2023-09-08T05:30:32;10.73;;;5.00;;
70558;SDS011;58108;48.094;11.838;2023-09-08T05:32:57;10.90;;;5.43;;
70558;SDS011;58108;48.094;11.838;2023-09-08T05:35:22;11.00;;;5.32;;
70558;SDS011;58108;48.094;11.838;2023-09-08T05:37:47;9.70;;;5.20;;
70558;SDS011;58108;48.094;11.838;2023-09-08T05:40:12;10.13;;;5.23;;
70558;SDS011;58108;48.094;11.838;2023-09-08T05:42:38;11.10;;;5.23;;
70558;SDS011;58108;48.094;11.838;2023-09-08T05:45:03;11.80;;;5.77;;
70558;SDS011;58108;48.094;11.838;2023-09-08T05:47:28;13.05;;;6.15;;
70558;SDS011;58108;48.094;11.838;2023-09-08T05:49:53;11.13;;;5.67;;
70558;SDS011;58108;48.094;11.838;2023-09-08T05:52:18;10.77;;;5.47;;
70558;SDS011;58108;48.094;11.838;2023-09-08T05:54:44;10.87;;;5.23;;
70558;SDS011;58108;48.094;11.838;2023-09-08T05:57:09;11.93;;;6.10;;
70558;SDS011;58108;48.094;11.838;2023-09-08T05:59:34;11.20;;;5.50;;
70558;SDS011;58108;48.094;11.838;2023-09-08T06:01:59;10.70;;;5.30;;
70558;SDS011;58108;48.094;11.838;2023-09-08T06:04:24;13.20;;;5.77;;
70558;SDS011;58108;48.094;11.838;2023-09-08T06:06:50;12.57;;;6.10;;
70558;SDS011;58108;48.094;11.838;2023-09-08T06:09:15;11.47;;;5.90;;
70558;SDS011;58108;48.094;11.838;2023-09-08T06:11:41;12.10;;;5.70;;
70558;SDS011;58108;48.094;11.838;2023-09-08T06:14:06;11.32;;;5.95;;
70558;SDS011;58108;48.094;11.838;2023-09-08T06:16:32;11.03;;;5.93;;
70558;SDS011;58108;48.094;11.838;2023-09-08T06:18:57;9.97;;;5.97;;
70558;SDS011;58108;48.094;11.838;2023-09-08T06:21:22;12.73;;;5.63;;
70558;SDS011;58108;48.094;11.838;2023-09-08T06:23:47;13.67;;;6.50;;
70558;SDS011;58108;48.094;11.838;2023-09-08T06:26:13;15.03;;;6.30;;
70558;SDS011;58108;48.094;11.838;2023-09-08T06:28:38;12.47;;;6.00;;
70558;SDS011;58108;48.094;11.838;2023-09-08T06:31:06;12.32;;;6.30;;
70558;SDS011;58108;48.094;11.838;2023-09-08T06:33:32;14.20;;;6.50;;
70558;SDS011;58108;48.094;11.838;2023-09-08T06:35:57;12.23;;;6.37;;
70558;SDS011;58108;48.094;11.838;2023-09-08T06:38:22;13.97;;;6.40;;
70558;SDS011;58108;48.094;11.838;2023-09-08T06:40:47;13.33;;;6.40;;
70558;SDS011;58108;48.094;11.838;2023-09-08T06:43:13;12.30;;;6.38;;
70558;SDS011;58108;48.094;11.838;2023-09-08T06:45:38;13.00;;;7.10;;
70558;SDS011;58108;48.094;11.838;2023-09-08T06:48:05;14.63;;;6.88;;
70558;SDS011;58108;48.094;11.838;2023-09-08T06:50:30;12.30;;;6.20;;
70558;SDS011;58108;48.094;11.838;2023-09-08T06:52:55;12.97;;;6.63;;
70558;SDS011;58108;48.094;11.838;2023-09-08T06:55:20;14.47;;;7.20;;
70558;SDS011;58108;48.094;11.838;2023-09-08T06:57:46;12.80;;;7.10;;
70558;SDS011;58108;48.094;11.838;2023-09-08T07:00:12;12.50;;;7.07;;
70558;SDS011;58108;48.094;11.838;2023-09-08T07:02:37;12.32;;;6.63;;
70558;SDS011;58108;48.094;11.838;2023-09-08T07:05:03;11.53;;;6.27;;
70558;SDS011;58108;48.094;11.838;2023-09-08T07:07:32;13.30;;;7.07;;
70558;SDS011;58108;48.094;11.838;2023-09-08T07:09:58;14.47;;;7.00;;
70558;SDS011;58108;48.094;11.838;2023-09-08T07:12:23;12.57;;;6.53;;
70558;SDS011;58108;48.094;11.838;2023-09-08T07:14:48;12.63;;;6.50;;
70558;SDS011;58108;48.094;11.838;2023-09-08T07:17:13;14.83;;;6.17;;
70558;SDS011;58108;48.094;11.838;2023-09-08T07:19:38;13.13;;;6.43;;
70558;SDS011;58108;48.094;11.838;2023-09-08T07:22:04;12.77;;;6.73;;
70558;SDS011;58108;48.094;11.838;2023-09-08T07:24:29;11.30;;;5.93;;
70558;SDS011;58108;48.094;11.838;2023-09-08T07:26:54;10.90;;;6.23;;
70558;SDS011;58108;48.094;11.838;2023-09-08T07:29:19;13.40;;;6.10;;
70558;SDS011;58108;48.094;11.838;2023-09-08T07:31:44;12.97;;;6.20;;
70558;SDS011;58108;48.094;11.838;2023-09-08T07:34:10;12.07;;;6.70;;
70558;SDS011;58108;48.094;11.838;2023-09-08T07:36:36;11.20;;;6.23;;
70558;SDS011;58108;48.094;11.838;2023-09-08T07:39:01;12.80;;;6.47;;
70558;SDS011;58108;48.094;11.838;2023-09-08T07:41:26;10.23;;;5.90;;
70558;SDS011;58108;48.094;11.838;2023-09-08T07:43:51;9.90;;;5.80;;
70558;SDS011;58108;48.094;11.838;2023-09-08T07:46:17;10.20;;;5.70;;
70558;SDS011;58108;48.094;11.838;2023-09-08T07:48:42;8.90;;;6.17;;
70558;SDS011;58108;48.094;11.838;2023-09-08T07:51:07;10.63;;;6.37;;
70558;SDS011;58108;48.094;11.838;2023-09-08T07:53:32;10.67;;;5.63;;
70558;SDS011;58108;48.094;11.838;2023-09-08T07:55:57;11.30;;;6.07;;
70558;SDS011;58108;48.094;11.838;2023-09-08T07:58:23;12.53;;;6.17;;
70558;SDS011;58108;48.094;11.838;2023-09-08T08:00:48;9.73;;;6.03;;
70558;SDS011;58108;48.094;11.838;2023-09-08T08:03:13;10.57;;;6.40;;
70558;SDS011;58108;48.094;11.838;2023-09-08T08:05:38;9.40;;;5.80;;
70558;SDS011;58108;48.094;11.838;2023-09-08T08:08:04;9.00;;;5.90;;
70558;SDS011;58108;48.094;11.838;2023-09-08T08:10:29;12.13;;;5.97;;
70558;SDS011;58108;48.094;11.838;2023-09-08T08:12:55;10.07;;;5.30;;
70558;SDS011;58108;48.094;11.838;2023-09-08T08:15:20;9.43;;;6.10;;
70558;SDS011;58108;48.094;11.838;2023-09-08T08:17:48;10.57;;;6.47;;
70558;SDS011;58108;48.094;11.838;2023-09-08T08:20:14;9.43;;;5.27;;
70558;SDS011;58108;48.094;11.838;2023-09-08T08:22:45;10.75;;;6.07;;
70558;SDS011;58108;48.094;11.838;2023-09-08T08:25:11;10.65;;;6.35;;
70558;SDS011;58108;48.094;11.838;2023-09-08T08:27:37;9.43;;;5.72;;
70558;SDS011;58108;48.094;11.838;2023-09-08T08:30:03;10.23;;;5.70;;
70558;SDS011;58108;48.094;11.838;2023-09-08T08:32:28;9.50;;;5.60;;
70558;SDS011;58108;48.094;11.838;2023-09-08T08:34:53;8.97;;;5.50;;
70558;SDS011;58108;48.094;11.838;2023-09-08T08:37:19;10.00;;;6.17;;
70558;SDS011;58108;48.094;11.838;2023-09-08T08:39:44;10.73;;;6.27;;
70558;SDS011;58108;48.094;11.838;2023-09-08T08:42:10;9.83;;;6.07;;
70558;SDS011;58108;48.094;11.838;2023-09-08T08:44:35;9.20;;;5.50;;
70558;SDS011;58108;48.094;11.838;2023-09-08T08:47:02;9.77;;;6.25;;
70558;SDS011;58108;48.094;11.838;2023-09-08T08:49:28;10.57;;;6.33;;
70558;SDS011;58108;48.094;11.838;2023-09-08T08:51:55;14.85;;;7.35;;
70558;SDS011;58108;48.094;11.838;2023-09-08T08:54:21;10.98;;;6.70;;
70558;SDS011;58108;48.094;11.838;2023-09-08T08:56:46;11.50;;;6.30;;
70558;SDS011;58108;48.094;11.838;2023-09-08T08:59:11;9.50;;;5.97;;
70558;SDS011;58108;48.094;11.838;2023-09-08T09:01:37;9.57;;;5.90;;
70558;SDS011;58108;48.094;11.838;2023-09-08T09:04:05;9.50;;;6.00;;
70558;SDS011;58108;48.094;11.838;2023-09-08T09:06:30;9.67;;;6.00;;
70558;SDS011;58108;48.094;11.838;2023-09-08T09:08:56;9.80;;;6.30;;
70558;SDS011;58108;48.094;11.838;2023-09-08T09:11:21;10.13;;;6.03;;
70558;SDS011;58108;48.094;11.838;2023-09-08T09:13:46;9.03;;;5.73;;
70558;SDS011;58108;48.094;11.838;2023-09-08T09:16:12;9.47;;;5.90;;
70558;SDS011;58108;48.094;11.838;2023-09-08T09:18:53;11.60;;;6.00;;
70558;SDS011;58108;48.094;11.838;2023-09-08T09:21:18;9.38;;;5.72;;
70558;SDS011;58108;48.094;11.838;2023-09-08T09:23:43;9.03;;;5.77;;
70558;SDS011;58108;48.094;11.838;2023-09-08T09:26:08;9.43;;;6.30;;
70558;SDS011;58108;48.094;11.838;2023-09-08T09:28:34;10.73;;;5.93;;
70558;SDS011;58108;48.094;11.838;2023-09-08T09:30:59;8.83;;;6.33;;
70558;SDS011;58108;48.094;11.838;2023-09-08T09:33:24;10.40;;;6.23;;
70558;SDS011;58108;48.094;11.838;2023-09-08T09:35:50;11.93;;;6.30;;
70558;SDS011;58108;48.094;11.838;2023-09-08T09:38:16;9.95;;;6.13;;
70558;SDS011;58108;48.094;11.838;2023-09-08T09:40:43;10.25;;;6.57;;
70558;SDS011;58108;48.094;11.838;2023-09-08T09:43:09;11.17;;;7.27;;
70558;SDS011;58108;48.094;11.838;2023-09-08T09:45:35;11.40;;;6.95;;
70558;SDS011;58108;48.094;11.838;2023-09-08T09:48:01;10.63;;;6.70;;
70558;SDS011;58108;48.094;11.838;2023-09-08T09:50:37;11.23;;;6.80;;
70558;SDS011;58108;48.094;11.838;2023-09-08T09:53:11;11.07;;;6.65;;
70558;SDS011;58108;48.094;11.838;2023-09-08T09:55:37;10.80;;;6.53;;
70558;SDS011;58108;48.094;11.838;2023-09-08T09:58:05;10.40;;;6.40;;
70558;SDS011;58108;48.094;11.838;2023-09-08T10:00:31;11.97;;;7.13;;
70558;SDS011;58108;48.094;11.838;2023-09-08T10:02:58;11.30;;;7.15;;
70558;SDS011;58108;48.094;11.838;2023-09-08T10:05:24;10.03;;;6.60;;
70558;SDS011;58108;48.094;11.838;2023-09-08T10:07:49;10.95;;;7.50;;
70558;SDS011;58108;48.094;11.838;2023-09-08T10:10:15;9.18;;;6.35;;
70558;SDS011;58108;48.094;11.838;2023-09-08T10:12:41;11.13;;;7.03;;
70558;SDS011;58108;48.094;11.838;2023-09-08T10:15:08;10.82;;;6.60;;
70558;SDS011;58108;48.094;11.838;2023-09-08T10:17:35;11.07;;;6.90;;
70558;SDS011;58108;48.094;11.838;2023-09-08T10:20:01;9.65;;;6.82;;
70558;SDS011;58108;48.094;11.838;2023-09-08T10:22:33;10.63;;;6.63;;
70558;SDS011;58108;48.094;11.838;2023-09-08T10:25:00;9.48;;;6.70;;
70558;SDS011;58108;48.094;11.838;2023-09-08T10:27:28;9.65;;;6.35;;
70558;SDS011;58108;48.094;11.838;2023-09-08T10:29:54;11.03;;;6.50;;
70558;SDS011;58108;48.094;11.838;2023-09-08T10:32:20;9.88;;;6.50;;
70558;SDS011;58108;48.094;11.838;2023-09-08T10:34:45;11.03;;;6.73;;
70558;SDS011;58108;48.094;11.838;2023-09-08T10:37:22;10.40;;;6.38;;
70558;SDS011;58108;48.094;11.838;2023-09-08T10:39:49;8.80;;;6.25;;
70558;SDS011;58108;48.094;11.838;2023-09-08T10:44:43;9.18;;;6.22;;
70558;SDS011;58108;48.094;11.838;2023-09-08T10:47:09;9.53;;;6.70;;
70558;SDS011;58108;48.094;11.838;2023-09-08T10:49:34;9.53;;;6.80;;
70558;SDS011;58108;48.094;11.838;2023-09-08T10:52:10;8.88;;;6.70;;
70558;SDS011;58108;48.094;11.838;2023-09-08T10:57:12;11.18;;;6.82;;
70558;SDS011;58108;48.094;11.838;2023-09-08T10:59:38;9.70;;;6.70;;
70558;SDS011;58108;48.094;11.838;2023-09-08T11:02:03;9.18;;;6.60;;
70558;SDS011;58108;48.094;11.838;2023-09-08T11:04:29;9.93;;;6.90;;
70558;SDS011;58108;48.094;11.838;2023-09-08T11:06:55;9.40;;;6.87;;
70558;SDS011;58108;48.094;11.838;2023-09-08T11:09:21;9.53;;;6.73;;
70558;SDS011;58108;48.094;11.838;2023-09-08T11:11:48;8.77;;;6.45;;
70558;SDS011;58108;48.094;11.838;2023-09-08T11:14:13;10.17;;;6.63;;
70558;SDS011;58108;48.094;11.838;2023-09-08T11:16:40;8.57;;;6.38;;
70558;SDS011;58108;48.094;11.838;2023-09-08T11:19:05;8.33;;;6.23;;
70558;SDS011;58108;48.094;11.838;2023-09-08T11:21:30;9.37;;;6.60;;
70558;SDS011;58108;48.094;11.838;2023-09-08T11:24:00;9.57;;;5.95;;
70558;SDS011;58108;48.094;11.838;2023-09-08T11:26:25;9.63;;;6.60;;
70558;SDS011;58108;48.094;11.838;2023-09-08T11:28:51;9.05;;;6.25;;
70558;SDS011;58108;48.094;11.838;2023-09-08T11:31:18;8.98;;;5.95;;
70558;SDS011;58108;48.094;11.838;2023-09-08T11:33:43;8.70;;;6.00;;
70558;SDS011;58108;48.094;11.838;2023-09-08T11:36:12;9.07;;;6.60;;
70558;SDS011;58108;48.094;11.838;2023-09-08T11:38:39;9.77;;;6.95;;
70558;SDS011;58108;48.094;11.838;2023-09-08T11:41:05;10.05;;;7.22;;
70558;SDS011;58108;48.094;11.838;2023-09-08T11:43:31;9.10;;;6.80;;
70558;SDS011;58108;48.094;11.838;2023-09-08T11:45:58;10.20;;;6.57;;
70558;SDS011;58108;48.094;11.838;2023-09-08T11:48:24;8.68;;;6.10;;
70558;SDS011;58108;48.094;11.838;2023-09-08T11:50:49;8.87;;;6.23;;
70558;SDS011;58108;48.094;11.838;2023-09-08T11:53:18;10.02;;;6.63;;
70558;SDS011;58108;48.094;11.838;2023-09-08T11:55:44;7.65;;;6.55;;
70558;SDS011;58108;48.094;11.838;2023-09-08T11:58:09;7.47;;;5.80;;
70558;SDS011;58108;48.094;11.838;2023-09-08T12:00:34;7.43;;;6.13;;
70558;SDS011;58108;48.094;11.838;2023-09-08T12:03:09;7.40;;;5.93;;
70558;SDS011;58108;48.094;11.838;2023-09-08T12:05:34;7.10;;;6.13;;
70558;SDS011;58108;48.094;11.838;2023-09-08T12:08:03;6.95;;;6.25;;
70558;SDS011;58108;48.094;11.838;2023-09-08T12:10:29;7.83;;;6.23;;
70558;SDS011;58108;48.094;11.838;2023-09-08T12:12:55;8.00;;;6.63;;
70558;SDS011;58108;48.094;11.838;2023-09-08T12:17:57;7.95;;;6.70;;
70558;SDS011;58108;48.094;11.838;2023-09-08T12:20:23;7.53;;;6.60;;
70558;SDS011;58108;48.094;11.838;2023-09-08T12:22:48;7.90;;;6.87;;
70558;SDS011;58108;48.094;11.838;2023-09-08T12:25:15;8.45;;;6.63;;
70558;SDS011;58108;48.094;11.838;2023-09-08T12:27:41;7.60;;;6.60;;
70558;SDS011;58108;48.094;11.838;2023-09-08T12:30:06;8.05;;;6.70;;
70558;SDS011;58108;48.094;11.838;2023-09-08T12:32:33;7.13;;;6.43;;
70558;SDS011;58108;48.094;11.838;2023-09-08T12:34:59;8.23;;;6.20;;
70558;SDS011;58108;48.094;11.838;2023-09-08T12:37:26;7.50;;;6.40;;
70558;SDS011;58108;48.094;11.838;2023-09-08T12:39:55;8.18;;;6.57;;
70558;SDS011;58108;48.094;11.838;2023-09-08T12:42:20;7.63;;;6.83;;
70558;SDS011;58108;48.094;11.838;2023-09-08T12:44:45;7.20;;;6.50;;
70558;SDS011;58108;48.094;11.838;2023-09-08T12:47:11;7.53;;;6.50;;
70558;SDS011;58108;48.094;11.838;2023-09-08T12:49:39;10.10;;;7.13;;
70558;SDS011;58108;48.094;11.838;2023-09-08T12:52:05;7.50;;;6.50;;
70558;SDS011;58108;48.094;11.838;2023-09-08T12:54:30;8.07;;;6.78;;
70558;SDS011;58108;48.094;11.838;2023-09-08T12:56:55;8.35;;;7.40;;
70558;SDS011;58108;48.094;11.838;2023-09-08T12:59:20;9.30;;;8.25;;
70558;SDS011;58108;48.094;11.838;2023-09-08T13:01:45;7.77;;;6.97;;
70558;SDS011;58108;48.094;11.838;2023-09-08T13:04:10;8.43;;;6.63;;
70558;SDS011;58108;48.094;11.838;2023-09-08T13:06:36;8.07;;;7.27;;
70558;SDS011;58108;48.094;11.838;2023-09-08T13:09:01;7.00;;;6.30;;
70558;SDS011;58108;48.094;11.838;2023-09-08T13:11:26;7.77;;;6.63;;
70558;SDS011;58108;48.094;11.838;2023-09-08T13:13:52;9.48;;;6.70;;
70558;SDS011;58108;48.094;11.838;2023-09-08T13:16:18;7.30;;;6.60;;
70558;SDS011;58108;48.094;11.838;2023-09-08T13:18:43;7.97;;;6.53;;
70558;SDS011;58108;48.094;11.838;2023-09-08T13:21:10;10.37;;;6.23;;
70558;SDS011;58108;48.094;11.838;2023-09-08T13:23:35;6.83;;;6.13;;
70558;SDS011;58108;48.094;11.838;2023-09-08T13:26:01;7.13;;;6.43;;
70558;SDS011;58108;48.094;11.838;2023-09-08T13:28:26;7.73;;;6.50;;
70558;SDS011;58108;48.094;11.838;2023-09-08T13:30:52;7.40;;;6.60;;
70558;SDS011;58108;48.094;11.838;2023-09-08T13:33:17;8.00;;;6.50;;
70558;SDS011;58108;48.094;11.838;2023-09-08T13:35:42;8.67;;;6.33;;
70558;SDS011;58108;48.094;11.838;2023-09-08T13:38:07;7.90;;;6.53;;
70558;SDS011;58108;48.094;11.838;2023-09-08T13:40:32;7.30;;;6.53;;
70558;SDS011;58108;48.094;11.838;2023-09-08T13:42:58;8.15;;;6.85;;
70558;SDS011;58108;48.094;11.838;2023-09-08T13:45:23;7.33;;;6.33;;
70558;SDS011;58108;48.094;11.838;2023-09-08T13:47:48;6.80;;;6.10;;
70558;SDS011;58108;48.094;11.838;2023-09-08T13:50:14;7.30;;;6.43;;
70558;SDS011;58108;48.094;11.838;2023-09-08T13:52:39;7.90;;;6.40;;
70558;SDS011;58108;48.094;11.838;2023-09-08T13:55:07;8.57;;;6.63;;
70558;SDS011;58108;48.094;11.838;2023-09-08T13:57:33;8.48;;;6.35;;
70558;SDS011;58108;48.094;11.838;2023-09-08T13:59:58;7.73;;;6.17;;
70558;SDS011;58108;48.094;11.838;2023-09-08T14:02:23;9.00;;;6.37;;
70558;SDS011;58108;48.094;11.838;2023-09-08T14:04:49;7.67;;;6.20;;
70558;SDS011;58108;48.094;11.838;2023-09-08T14:07:14;7.40;;;6.30;;
70558;SDS011;58108;48.094;11.838;2023-09-08T14:09:39;6.97;;;6.10;;
70558;SDS011;58108;48.094;11.838;2023-09-08T14:12:05;7.57;;;6.77;;
70558;SDS011;58108;48.094;11.838;2023-09-08T14:14:30;7.67;;;6.87;;
70558;SDS011;58108;48.094;11.838;2023-09-08T14:16:55;7.50;;;6.70;;
70558;SDS011;58108;48.094;11.838;2023-09-08T14:19:20;9.00;;;6.57;;
70558;SDS011;58108;48.094;11.838;2023-09-08T14:21:45;7.10;;;6.40;;
70558;SDS011;58108;48.094;11.838;2023-09-08T14:24:11;8.87;;;6.53;;
70558;SDS011;58108;48.094;11.838;2023-09-08T14:26:36;8.83;;;6.67;;
70558;SDS011;58108;48.094;11.838;2023-09-08T14:29:01;7.90;;;6.43;;
70558;SDS011;58108;48.094;11.838;2023-09-08T14:31:27;8.70;;;6.90;;